sensor_id;sensor_type;location;lat;lon;timestamp;P1;durP1;ratioP1;P2;durP2;ratioP2
7487;SDS011;3785;52.260;4.728;2023-06-10T00:00:01;3.30;;;2.33;;
7487;SDS011;3785;52.260;4.728;2023-06-10T00:03:21;3.13;;;2.15;;
7487;SDS011;3785;52.260;4.728;2023-06-10T00:06:43;3.90;;;2.30;;
7487;SDS011;3785;52.260;4.728;2023-06-10T00:10:05;3.65;;;2.35;;
7487;SDS011;3785;52.260;4.728;2023-06-10T00:13:26;3.10;;;2.38;;
7487;SDS011;3785;52.260;4.728;2023-06-10T00:16:46;3.53;;;2.20;;
7487;SDS011;3785;52.260;4.728;2023-06-10T00:20:08;6.05;;;2.30;;
7487;SDS011;3785;52.260;4.728;2023-06-10T00:23:31;4.32;;;2.20;;
7487;SDS011;3785;52.260;4.728;2023-06-10T00:26:58;3.25;;;2.05;;
7487;SDS011;3785;52.260;4.728;2023-06-10T00:30:18;3.88;;;2.33;;
7487;SDS011;3785;52.260;4.728;2023-06-10T00:33:39;3.28;;;2.13;;
7487;SDS011;3785;52.260;4.728;2023-06-10T00:37:00;4.13;;;2.22;;
7487;SDS011;3785;52.260;4.728;2023-06-10T00:40:20;4.07;;;2.10;;
7487;SDS011;3785;52.260;4.728;2023-06-10T00:43:41;4.22;;;2.35;;
7487;SDS011;3785;52.260;4.728;2023-06-10T00:47:02;5.88;;;2.17;;
7487;SDS011;3785;52.260;4.728;2023-06-10T00:50:23;4.03;;;2.28;;
7487;SDS011;3785;52.260;4.728;2023-06-10T00:53:43;4.97;;;2.47;;
7487;SDS011;3785;52.260;4.728;2023-06-10T00:57:05;5.07;;;2.38;;
7487;SDS011;3785;52.260;4.728;2023-06-10T01:00:25;3.38;;;2.20;;
7487;SDS011;3785;52.260;4.728;2023-06-10T01:03:46;3.75;;;2.17;;
7487;SDS011;3785;52.260;4.728;2023-06-10T01:07:21;3.30;;;1.88;;
7487;SDS011;3785;52.260;4.728;2023-06-10T01:10:57;5.05;;;2.30;;
7487;SDS011;3785;52.260;4.728;2023-06-10T01:14:19;4.55;;;2.20;;
7487;SDS011;3785;52.260;4.728;2023-06-10T01:21:37;5.70;;;2.08;;
7487;SDS011;3785;52.260;4.728;2023-06-10T01:24:59;3.92;;;2.20;;
7487;SDS011;3785;52.260;4.728;2023-06-10T01:32:04;4.03;;;2.30;;
7487;SDS011;3785;52.260;4.728;2023-06-10T01:35:28;3.35;;;2.13;;
7487;SDS011;3785;52.260;4.728;2023-06-10T01:38:50;3.25;;;1.92;;
7487;SDS011;3785;52.260;4.728;2023-06-10T01:42:10;6.60;;;2.65;;
7487;SDS011;3785;52.260;4.728;2023-06-10T01:45:31;3.63;;;2.20;;
7487;SDS011;3785;52.260;4.728;2023-06-10T01:48:52;3.45;;;2.00;;
7487;SDS011;3785;52.260;4.728;2023-06-10T01:52:13;5.70;;;2.70;;
7487;SDS011;3785;52.260;4.728;2023-06-10T01:55:33;3.70;;;2.20;;
7487;SDS011;3785;52.260;4.728;2023-06-10T01:58:54;4.72;;;2.08;;
7487;SDS011;3785;52.260;4.728;2023-06-10T02:02:18;3.40;;;1.92;;
7487;SDS011;3785;52.260;4.728;2023-06-10T02:05:39;3.10;;;2.00;;
7487;SDS011;3785;52.260;4.728;2023-06-10T02:09:00;2.90;;;2.00;;
7487;SDS011;3785;52.260;4.728;2023-06-10T02:12:20;4.32;;;2.30;;
7487;SDS011;3785;52.260;4.728;2023-06-10T02:15:41;3.50;;;2.22;;
7487;SDS011;3785;52.260;4.728;2023-06-10T02:19:01;4.75;;;2.60;;
7487;SDS011;3785;52.260;4.728;2023-06-10T02:22:25;4.53;;;2.35;;
7487;SDS011;3785;52.260;4.728;2023-06-10T02:25:46;4.13;;;2.05;;
7487;SDS011;3785;52.260;4.728;2023-06-10T02:29:08;3.83;;;2.45;;
7487;SDS011;3785;52.260;4.728;2023-06-10T02:32:28;4.38;;;2.20;;
7487;SDS011;3785;52.260;4.728;2023-06-10T02:35:49;3.13;;;2.00;;
7487;SDS011;3785;52.260;4.728;2023-06-10T02:39:10;3.15;;;2.17;;
7487;SDS011;3785;52.260;4.728;2023-06-10T02:42:30;4.75;;;2.47;;
7487;SDS011;3785;52.260;4.728;2023-06-10T02:45:51;4.13;;;2.67;;
7487;SDS011;3785;52.260;4.728;2023-06-10T02:49:12;3.85;;;2.10;;
7487;SDS011;3785;52.260;4.728;2023-06-10T02:52:32;5.10;;;2.65;;
7487;SDS011;3785;52.260;4.728;2023-06-10T02:55:53;4.10;;;2.53;;
7487;SDS011;3785;52.260;4.728;2023-06-10T02:59:14;3.78;;;2.40;;
7487;SDS011;3785;52.260;4.728;2023-06-10T03:02:35;3.97;;;2.42;;
7487;SDS011;3785;52.260;4.728;2023-06-10T03:05:57;4.03;;;2.35;;
7487;SDS011;3785;52.260;4.728;2023-06-10T03:09:18;4.45;;;2.60;;
7487;SDS011;3785;52.260;4.728;2023-06-10T03:12:39;7.68;;;2.75;;
7487;SDS011;3785;52.260;4.728;2023-06-10T03:16:00;4.88;;;2.72;;
7487;SDS011;3785;52.260;4.728;2023-06-10T03:19:21;3.90;;;2.78;;
7487;SDS011;3785;52.260;4.728;2023-06-10T03:22:41;3.83;;;2.55;;
7487;SDS011;3785;52.260;4.728;2023-06-10T03:26:02;5.18;;;2.58;;
7487;SDS011;3785;52.260;4.728;2023-06-10T03:29:24;3.88;;;2.40;;
7487;SDS011;3785;52.260;4.728;2023-06-10T03:32:45;4.05;;;2.72;;
7487;SDS011;3785;52.260;4.728;2023-06-10T03:36:06;6.53;;;2.60;;
7487;SDS011;3785;52.260;4.728;2023-06-10T03:39:28;5.53;;;2.75;;
7487;SDS011;3785;52.260;4.728;2023-06-10T03:42:51;4.63;;;2.30;;
7487;SDS011;3785;52.260;4.728;2023-06-10T03:46:12;6.10;;;2.80;;
7487;SDS011;3785;52.260;4.728;2023-06-10T03:49:32;3.83;;;2.35;;
7487;SDS011;3785;52.260;4.728;2023-06-10T03:52:53;3.75;;;2.35;;
7487;SDS011;3785;52.260;4.728;2023-06-10T03:56:13;3.53;;;2.47;;
7487;SDS011;3785;52.260;4.728;2023-06-10T03:59:34;5.00;;;2.80;;
7487;SDS011;3785;52.260;4.728;2023-06-10T04:02:54;5.43;;;3.00;;
7487;SDS011;3785;52.260;4.728;2023-06-10T04:06:17;5.18;;;2.92;;
7487;SDS011;3785;52.260;4.728;2023-06-10T04:09:38;4.03;;;2.42;;
7487;SDS011;3785;52.260;4.728;2023-06-10T04:12:59;4.30;;;2.53;;
7487;SDS011;3785;52.260;4.728;2023-06-10T04:16:20;4.30;;;2.72;;
7487;SDS011;3785;52.260;4.728;2023-06-10T04:19:41;4.78;;;2.42;;
7487;SDS011;3785;52.260;4.728;2023-06-10T04:23:01;4.28;;;2.60;;
7487;SDS011;3785;52.260;4.728;2023-06-10T04:26:22;3.75;;;2.40;;
7487;SDS011;3785;52.260;4.728;2023-06-10T04:29:42;4.90;;;3.00;;
7487;SDS011;3785;52.260;4.728;2023-06-10T04:33:03;4.35;;;3.00;;
7487;SDS011;3785;52.260;4.728;2023-06-10T04:36:25;4.53;;;2.78;;
7487;SDS011;3785;52.260;4.728;2023-06-10T04:39:46;4.63;;;2.60;;
7487;SDS011;3785;52.260;4.728;2023-06-10T04:43:06;8.07;;;3.03;;
7487;SDS011;3785;52.260;4.728;2023-06-10T04:46:27;5.90;;;2.63;;
7487;SDS011;3785;52.260;4.728;2023-06-10T04:49:47;4.72;;;2.90;;
7487;SDS011;3785;52.260;4.728;2023-06-10T04:53:08;5.57;;;2.58;;
7487;SDS011;3785;52.260;4.728;2023-06-10T04:56:29;4.72;;;2.83;;
7487;SDS011;3785;52.260;4.728;2023-06-10T04:59:50;4.40;;;2.50;;
7487;SDS011;3785;52.260;4.728;2023-06-10T05:03:10;4.40;;;2.45;;
7487;SDS011;3785;52.260;4.728;2023-06-10T05:06:31;4.22;;;2.28;;
7487;SDS011;3785;52.260;4.728;2023-06-10T05:09:52;4.47;;;2.80;;
7487;SDS011;3785;52.260;4.728;2023-06-10T05:13:12;4.22;;;2.80;;
7487;SDS011;3785;52.260;4.728;2023-06-10T05:16:33;4.90;;;2.92;;
7487;SDS011;3785;52.260;4.728;2023-06-10T05:19:53;4.47;;;2.60;;
7487;SDS011;3785;52.260;4.728;2023-06-10T05:23:14;4.80;;;2.83;;
7487;SDS011;3785;52.260;4.728;2023-06-10T05:26:35;4.60;;;3.00;;
7487;SDS011;3785;52.260;4.728;2023-06-10T05:29:59;5.40;;;2.78;;
7487;SDS011;3785;52.260;4.728;2023-06-10T05:33:19;11.63;;;2.78;;
7487;SDS011;3785;52.260;4.728;2023-06-10T05:36:40;5.07;;;2.80;;
7487;SDS011;3785;52.260;4.728;2023-06-10T05:40:01;4.43;;;2.85;;
7487;SDS011;3785;52.260;4.728;2023-06-10T05:43:21;4.75;;;2.70;;
7487;SDS011;3785;52.260;4.728;2023-06-10T05:46:42;5.60;;;3.20;;
7487;SDS011;3785;52.260;4.728;2023-06-10T05:50:02;4.28;;;2.63;;
7487;SDS011;3785;52.260;4.728;2023-06-10T05:53:27;4.45;;;2.83;;
7487;SDS011;3785;52.260;4.728;2023-06-10T05:56:47;5.55;;;3.05;;
7487;SDS011;3785;52.260;4.728;2023-06-10T06:00:08;3.35;;;2.50;;
7487;SDS011;3785;52.260;4.728;2023-06-10T06:03:29;5.53;;;2.75;;
7487;SDS011;3785;52.260;4.728;2023-06-10T06:06:50;4.30;;;3.00;;
7487;SDS011;3785;52.260;4.728;2023-06-10T06:10:10;4.47;;;2.38;;
7487;SDS011;3785;52.260;4.728;2023-06-10T06:13:31;5.60;;;2.85;;
7487;SDS011;3785;52.260;4.728;2023-06-10T06:16:52;5.45;;;2.60;;
7487;SDS011;3785;52.260;4.728;2023-06-10T06:20:12;4.88;;;2.78;;
7487;SDS011;3785;52.260;4.728;2023-06-10T06:23:33;5.10;;;2.88;;
7487;SDS011;3785;52.260;4.728;2023-06-10T06:26:53;5.85;;;2.92;;
7487;SDS011;3785;52.260;4.728;2023-06-10T06:30:14;4.70;;;2.83;;
7487;SDS011;3785;52.260;4.728;2023-06-10T06:33:35;5.57;;;3.03;;
7487;SDS011;3785;52.260;4.728;2023-06-10T06:36:55;4.22;;;2.60;;
7487;SDS011;3785;52.260;4.728;2023-06-10T06:40:16;4.43;;;2.97;;
7487;SDS011;3785;52.260;4.728;2023-06-10T06:43:36;5.00;;;3.25;;
7487;SDS011;3785;52.260;4.728;2023-06-10T06:46:57;3.85;;;2.45;;
7487;SDS011;3785;52.260;4.728;2023-06-10T06:50:17;5.85;;;3.25;;
7487;SDS011;3785;52.260;4.728;2023-06-10T06:53:38;6.20;;;2.50;;
7487;SDS011;3785;52.260;4.728;2023-06-10T06:57:04;7.07;;;3.00;;
7487;SDS011;3785;52.260;4.728;2023-06-10T07:00:25;4.55;;;2.83;;
7487;SDS011;3785;52.260;4.728;2023-06-10T07:03:46;7.78;;;2.90;;
7487;SDS011;3785;52.260;4.728;2023-06-10T07:07:09;3.88;;;2.40;;
7487;SDS011;3785;52.260;4.728;2023-06-10T07:10:30;5.22;;;2.80;;
7487;SDS011;3785;52.260;4.728;2023-06-10T07:13:50;4.63;;;2.90;;
7487;SDS011;3785;52.260;4.728;2023-06-10T07:17:11;3.80;;;2.80;;
7487;SDS011;3785;52.260;4.728;2023-06-10T07:20:32;4.07;;;2.53;;
7487;SDS011;3785;52.260;4.728;2023-06-10T07:23:52;3.42;;;2.63;;
7487;SDS011;3785;52.260;4.728;2023-06-10T07:27:13;5.28;;;3.35;;
7487;SDS011;3785;52.260;4.728;2023-06-10T07:30:34;5.10;;;2.80;;
7487;SDS011;3785;52.260;4.728;2023-06-10T07:33:54;4.95;;;2.80;;
7487;SDS011;3785;52.260;4.728;2023-06-10T07:37:15;4.20;;;2.47;;
7487;SDS011;3785;52.260;4.728;2023-06-10T07:40:35;4.70;;;2.55;;
7487;SDS011;3785;52.260;4.728;2023-06-10T07:43:56;6.32;;;2.50;;
7487;SDS011;3785;52.260;4.728;2023-06-10T07:47:16;4.18;;;2.40;;
7487;SDS011;3785;52.260;4.728;2023-06-10T07:50:37;6.95;;;3.05;;
7487;SDS011;3785;52.260;4.728;2023-06-10T07:53:58;5.38;;;2.90;;
7487;SDS011;3785;52.260;4.728;2023-06-10T07:57:19;4.82;;;3.00;;
7487;SDS011;3785;52.260;4.728;2023-06-10T08:00:40;5.57;;;2.60;;
7487;SDS011;3785;52.260;4.728;2023-06-10T08:04:00;4.18;;;2.45;;
7487;SDS011;3785;52.260;4.728;2023-06-10T08:07:21;4.95;;;2.97;;
7487;SDS011;3785;52.260;4.728;2023-06-10T08:10:42;4.10;;;2.70;;
7487;SDS011;3785;52.260;4.728;2023-06-10T08:14:02;4.15;;;2.75;;
7487;SDS011;3785;52.260;4.728;2023-06-10T08:17:23;6.60;;;3.00;;
7487;SDS011;3785;52.260;4.728;2023-06-10T08:20:44;4.20;;;2.63;;
7487;SDS011;3785;52.260;4.728;2023-06-10T08:24:05;6.38;;;2.80;;
7487;SDS011;3785;52.260;4.728;2023-06-10T08:27:26;4.75;;;2.50;;
7487;SDS011;3785;52.260;4.728;2023-06-10T08:30:47;4.30;;;2.70;;
7487;SDS011;3785;52.260;4.728;2023-06-10T08:34:08;5.35;;;2.67;;
7487;SDS011;3785;52.260;4.728;2023-06-10T08:37:29;4.38;;;2.70;;
7487;SDS011;3785;52.260;4.728;2023-06-10T08:40:50;3.67;;;2.75;;
7487;SDS011;3785;52.260;4.728;2023-06-10T08:44:17;5.72;;;3.55;;
7487;SDS011;3785;52.260;4.728;2023-06-10T08:47:41;5.13;;;2.92;;
7487;SDS011;3785;52.260;4.728;2023-06-10T08:51:03;3.83;;;2.80;;
7487;SDS011;3785;52.260;4.728;2023-06-10T08:54:27;5.32;;;2.88;;
7487;SDS011;3785;52.260;4.728;2023-06-10T08:57:50;6.00;;;2.80;;
7487;SDS011;3785;52.260;4.728;2023-06-10T09:01:11;6.43;;;3.08;;
7487;SDS011;3785;52.260;4.728;2023-06-10T09:04:32;5.25;;;3.03;;
7487;SDS011;3785;52.260;4.728;2023-06-10T09:07:53;5.95;;;3.17;;
7487;SDS011;3785;52.260;4.728;2023-06-10T09:11:14;3.30;;;2.42;;
7487;SDS011;3785;52.260;4.728;2023-06-10T09:14:35;4.57;;;2.90;;
7487;SDS011;3785;52.260;4.728;2023-06-10T09:17:55;4.85;;;2.78;;
7487;SDS011;3785;52.260;4.728;2023-06-10T09:21:16;3.83;;;2.67;;
7487;SDS011;3785;52.260;4.728;2023-06-10T09:24:36;3.30;;;2.30;;
7487;SDS011;3785;52.260;4.728;2023-06-10T09:27:57;3.00;;;2.50;;
7487;SDS011;3785;52.260;4.728;2023-06-10T09:31:17;5.32;;;2.85;;
7487;SDS011;3785;52.260;4.728;2023-06-10T09:34:41;4.10;;;2.38;;
7487;SDS011;3785;52.260;4.728;2023-06-10T09:38:02;4.35;;;2.58;;
7487;SDS011;3785;52.260;4.728;2023-06-10T09:41:30;5.03;;;3.05;;
7487;SDS011;3785;52.260;4.728;2023-06-10T09:44:56;4.65;;;2.65;;
7487;SDS011;3785;52.260;4.728;2023-06-10T09:48:16;5.68;;;2.70;;
7487;SDS011;3785;52.260;4.728;2023-06-10T09:51:37;7.00;;;2.67;;
7487;SDS011;3785;52.260;4.728;2023-06-10T09:55:01;5.70;;;2.50;;
7487;SDS011;3785;52.260;4.728;2023-06-10T09:58:38;4.32;;;2.70;;
7487;SDS011;3785;52.260;4.728;2023-06-10T10:01:59;4.13;;;2.35;;
7487;SDS011;3785;52.260;4.728;2023-06-10T10:05:21;3.53;;;2.45;;
7487;SDS011;3785;52.260;4.728;2023-06-10T10:08:43;5.10;;;2.80;;
7487;SDS011;3785;52.260;4.728;2023-06-10T10:12:11;3.10;;;2.17;;
7487;SDS011;3785;52.260;4.728;2023-06-10T10:15:32;4.03;;;2.35;;
7487;SDS011;3785;52.260;4.728;2023-06-10T10:18:55;3.58;;;2.45;;
7487;SDS011;3785;52.260;4.728;2023-06-10T10:22:19;4.20;;;2.55;;
7487;SDS011;3785;52.260;4.728;2023-06-10T10:25:44;3.50;;;2.40;;
7487;SDS011;3785;52.260;4.728;2023-06-10T10:29:20;4.45;;;2.70;;
7487;SDS011;3785;52.260;4.728;2023-06-10T10:36:12;3.58;;;2.38;;
7487;SDS011;3785;52.260;4.728;2023-06-10T10:39:34;3.20;;;2.35;;
7487;SDS011;3785;52.260;4.728;2023-06-10T10:42:56;4.43;;;2.70;;
7487;SDS011;3785;52.260;4.728;2023-06-10T10:46:16;3.92;;;2.67;;
7487;SDS011;3785;52.260;4.728;2023-06-10T10:49:37;3.53;;;2.50;;
7487;SDS011;3785;52.260;4.728;2023-06-10T10:56:19;3.60;;;2.40;;
7487;SDS011;3785;52.260;4.728;2023-06-10T11:03:17;3.42;;;2.40;;
7487;SDS011;3785;52.260;4.728;2023-06-10T11:06:37;3.60;;;2.33;;
7487;SDS011;3785;52.260;4.728;2023-06-10T11:13:31;3.60;;;2.30;;
7487;SDS011;3785;52.260;4.728;2023-06-10T11:16:52;3.55;;;2.55;;
7487;SDS011;3785;52.260;4.728;2023-06-10T11:20:36;3.20;;;2.53;;
7487;SDS011;3785;52.260;4.728;2023-06-10T11:24:12;3.05;;;2.25;;
7487;SDS011;3785;52.260;4.728;2023-06-10T11:27:37;3.47;;;2.60;;
7487;SDS011;3785;52.260;4.728;2023-06-10T11:31:01;4.65;;;2.70;;
7487;SDS011;3785;52.260;4.728;2023-06-10T11:34:22;3.90;;;2.40;;
7487;SDS011;3785;52.260;4.728;2023-06-10T11:37:44;3.55;;;2.65;;
7487;SDS011;3785;52.260;4.728;2023-06-10T11:41:05;4.07;;;2.50;;
7487;SDS011;3785;52.260;4.728;2023-06-10T11:44:27;4.05;;;2.60;;
7487;SDS011;3785;52.260;4.728;2023-06-10T11:47:55;3.95;;;2.60;;
7487;SDS011;3785;52.260;4.728;2023-06-10T11:51:19;3.53;;;2.22;;
7487;SDS011;3785;52.260;4.728;2023-06-10T11:54:40;3.10;;;2.28;;
7487;SDS011;3785;52.260;4.728;2023-06-10T11:58:01;2.97;;;2.30;;
7487;SDS011;3785;52.260;4.728;2023-06-10T12:01:22;4.38;;;2.40;;
7487;SDS011;3785;52.260;4.728;2023-06-10T12:04:43;4.22;;;2.60;;
7487;SDS011;3785;52.260;4.728;2023-06-10T12:08:10;7.28;;;5.28;;
7487;SDS011;3785;52.260;4.728;2023-06-10T12:11:31;4.78;;;2.60;;
7487;SDS011;3785;52.260;4.728;2023-06-10T12:18:20;3.45;;;2.25;;
7487;SDS011;3785;52.260;4.728;2023-06-10T12:21:41;3.30;;;2.20;;
7487;SDS011;3785;52.260;4.728;2023-06-10T12:25:03;4.00;;;2.40;;
7487;SDS011;3785;52.260;4.728;2023-06-10T12:28:26;3.78;;;2.40;;
7487;SDS011;3785;52.260;4.728;2023-06-10T12:31:53;3.70;;;2.63;;
7487;SDS011;3785;52.260;4.728;2023-06-10T12:35:18;3.42;;;2.25;;
7487;SDS011;3785;52.260;4.728;2023-06-10T12:38:40;5.15;;;2.50;;
7487;SDS011;3785;52.260;4.728;2023-06-10T12:42:02;4.25;;;2.80;;
7487;SDS011;3785;52.260;4.728;2023-06-10T12:45:34;4.95;;;2.80;;
7487;SDS011;3785;52.260;4.728;2023-06-10T12:48:55;4.47;;;2.47;;
7487;SDS011;3785;52.260;4.728;2023-06-10T12:52:16;4.50;;;2.22;;
7487;SDS011;3785;52.260;4.728;2023-06-10T12:55:37;3.45;;;2.30;;
7487;SDS011;3785;52.260;4.728;2023-06-10T12:58:58;3.30;;;2.50;;
7487;SDS011;3785;52.260;4.728;2023-06-10T13:02:18;3.17;;;2.28;;
7487;SDS011;3785;52.260;4.728;2023-06-10T13:05:40;3.97;;;2.45;;
7487;SDS011;3785;52.260;4.728;2023-06-10T13:09:01;3.92;;;2.30;;
7487;SDS011;3785;52.260;4.728;2023-06-10T13:12:22;4.28;;;2.20;;
7487;SDS011;3785;52.260;4.728;2023-06-10T13:15:43;3.20;;;2.15;;
7487;SDS011;3785;52.260;4.728;2023-06-10T13:19:04;5.13;;;2.60;;
7487;SDS011;3785;52.260;4.728;2023-06-10T13:22:26;3.67;;;2.25;;
7487;SDS011;3785;52.260;4.728;2023-06-10T13:25:47;3.80;;;2.38;;
7487;SDS011;3785;52.260;4.728;2023-06-10T13:29:07;3.60;;;2.28;;
7487;SDS011;3785;52.260;4.728;2023-06-10T13:32:33;4.13;;;2.58;;
7487;SDS011;3785;52.260;4.728;2023-06-10T13:35:54;7.35;;;3.65;;
7487;SDS011;3785;52.260;4.728;2023-06-10T13:39:15;3.28;;;2.55;;
7487;SDS011;3785;52.260;4.728;2023-06-10T13:42:35;3.53;;;2.20;;
7487;SDS011;3785;52.260;4.728;2023-06-10T13:45:56;3.03;;;2.28;;
7487;SDS011;3785;52.260;4.728;2023-06-10T13:49:17;3.65;;;2.60;;
7487;SDS011;3785;52.260;4.728;2023-06-10T13:52:37;6.13;;;2.40;;
7487;SDS011;3785;52.260;4.728;2023-06-10T13:55:58;5.57;;;2.97;;
7487;SDS011;3785;52.260;4.728;2023-06-10T13:59:19;4.32;;;2.78;;
7487;SDS011;3785;52.260;4.728;2023-06-10T14:02:41;4.22;;;2.55;;
7487;SDS011;3785;52.260;4.728;2023-06-10T14:06:01;4.22;;;2.40;;
7487;SDS011;3785;52.260;4.728;2023-06-10T14:09:22;3.47;;;2.50;;
7487;SDS011;3785;52.260;4.728;2023-06-10T14:12:43;3.10;;;2.47;;
7487;SDS011;3785;52.260;4.728;2023-06-10T14:16:03;2.85;;;2.05;;
7487;SDS011;3785;52.260;4.728;2023-06-10T14:19:24;3.72;;;2.20;;
7487;SDS011;3785;52.260;4.728;2023-06-10T14:22:45;3.58;;;2.67;;
7487;SDS011;3785;52.260;4.728;2023-06-10T14:26:06;3.25;;;2.25;;
7487;SDS011;3785;52.260;4.728;2023-06-10T14:29:27;2.85;;;2.20;;
7487;SDS011;3785;52.260;4.728;2023-06-10T14:32:49;3.47;;;2.20;;
7487;SDS011;3785;52.260;4.728;2023-06-10T14:36:11;2.95;;;2.55;;
7487;SDS011;3785;52.260;4.728;2023-06-10T14:39:32;3.38;;;2.53;;
7487;SDS011;3785;52.260;4.728;2023-06-10T14:42:59;3.25;;;2.08;;
7487;SDS011;3785;52.260;4.728;2023-06-10T14:46:32;2.97;;;2.10;;
7487;SDS011;3785;52.260;4.728;2023-06-10T14:49:53;3.50;;;2.08;;
7487;SDS011;3785;52.260;4.728;2023-06-10T14:53:18;3.33;;;2.22;;
7487;SDS011;3785;52.260;4.728;2023-06-10T14:56:38;3.65;;;2.40;;
7487;SDS011;3785;52.260;4.728;2023-06-10T14:59:59;3.78;;;2.33;;
7487;SDS011;3785;52.260;4.728;2023-06-10T15:03:20;2.83;;;2.13;;
7487;SDS011;3785;52.260;4.728;2023-06-10T15:06:47;2.72;;;2.10;;
7487;SDS011;3785;52.260;4.728;2023-06-10T15:10:09;4.13;;;2.60;;
7487;SDS011;3785;52.260;4.728;2023-06-10T15:13:30;3.60;;;2.22;;
7487;SDS011;3785;52.260;4.728;2023-06-10T15:16:51;2.78;;;1.92;;
7487;SDS011;3785;52.260;4.728;2023-06-10T15:20:19;4.63;;;2.90;;
7487;SDS011;3785;52.260;4.728;2023-06-10T15:23:43;4.28;;;2.50;;
7487;SDS011;3785;52.260;4.728;2023-06-10T15:27:05;3.08;;;2.30;;
7487;SDS011;3785;52.260;4.728;2023-06-10T15:30:28;3.83;;;2.08;;
7487;SDS011;3785;52.260;4.728;2023-06-10T15:33:58;3.33;;;2.30;;
7487;SDS011;3785;52.260;4.728;2023-06-10T15:37:19;3.25;;;1.92;;
7487;SDS011;3785;52.260;4.728;2023-06-10T15:40:41;3.05;;;2.00;;
7487;SDS011;3785;52.260;4.728;2023-06-10T15:44:01;3.58;;;2.22;;
7487;SDS011;3785;52.260;4.728;2023-06-10T15:47:22;3.25;;;2.10;;
7487;SDS011;3785;52.260;4.728;2023-06-10T15:50:43;3.40;;;2.45;;
7487;SDS011;3785;52.260;4.728;2023-06-10T15:54:05;4.20;;;2.45;;
7487;SDS011;3785;52.260;4.728;2023-06-10T15:57:25;4.63;;;2.10;;
7487;SDS011;3785;52.260;4.728;2023-06-10T16:00:46;2.40;;;1.98;;
7487;SDS011;3785;52.260;4.728;2023-06-10T16:04:06;3.58;;;2.05;;
7487;SDS011;3785;52.260;4.728;2023-06-10T16:07:27;2.72;;;1.88;;
7487;SDS011;3785;52.260;4.728;2023-06-10T16:10:47;3.22;;;2.10;;
7487;SDS011;3785;52.260;4.728;2023-06-10T16:14:08;2.70;;;2.00;;
7487;SDS011;3785;52.260;4.728;2023-06-10T16:17:28;2.50;;;2.10;;
7487;SDS011;3785;52.260;4.728;2023-06-10T16:20:49;3.10;;;2.03;;
7487;SDS011;3785;52.260;4.728;2023-06-10T16:24:10;2.72;;;2.22;;
7487;SDS011;3785;52.260;4.728;2023-06-10T16:27:31;2.63;;;2.08;;
7487;SDS011;3785;52.260;4.728;2023-06-10T16:30:52;2.78;;;2.10;;
7487;SDS011;3785;52.260;4.728;2023-06-10T16:34:12;3.00;;;1.92;;
7487;SDS011;3785;52.260;4.728;2023-06-10T16:37:34;3.17;;;2.03;;
7487;SDS011;3785;52.260;4.728;2023-06-10T16:40:54;2.72;;;1.75;;
7487;SDS011;3785;52.260;4.728;2023-06-10T16:44:15;3.25;;;2.20;;
7487;SDS011;3785;52.260;4.728;2023-06-10T16:47:36;3.20;;;2.40;;
7487;SDS011;3785;52.260;4.728;2023-06-10T16:50:57;4.05;;;2.28;;
7487;SDS011;3785;52.260;4.728;2023-06-10T16:54:17;3.70;;;1.98;;
7487;SDS011;3785;52.260;4.728;2023-06-10T16:57:38;2.78;;;2.05;;
7487;SDS011;3785;52.260;4.728;2023-06-10T17:01:01;2.67;;;1.90;;
7487;SDS011;3785;52.260;4.728;2023-06-10T17:04:25;2.85;;;1.80;;
7487;SDS011;3785;52.260;4.728;2023-06-10T17:07:45;3.47;;;1.90;;
7487;SDS011;3785;52.260;4.728;2023-06-10T17:11:07;2.88;;;1.83;;
7487;SDS011;3785;52.260;4.728;2023-06-10T17:14:27;3.47;;;2.00;;
7487;SDS011;3785;52.260;4.728;2023-06-10T17:17:48;2.35;;;1.85;;
7487;SDS011;3785;52.260;4.728;2023-06-10T17:21:12;2.70;;;1.85;;
7487;SDS011;3785;52.260;4.728;2023-06-10T17:24:33;4.07;;;2.20;;
7487;SDS011;3785;52.260;4.728;2023-06-10T17:27:53;2.78;;;1.95;;
7487;SDS011;3785;52.260;4.728;2023-06-10T17:31:14;3.80;;;2.15;;
7487;SDS011;3785;52.260;4.728;2023-06-10T17:34:35;3.28;;;1.77;;
7487;SDS011;3785;52.260;4.728;2023-06-10T17:37:55;2.80;;;2.03;;
7487;SDS011;3785;52.260;4.728;2023-06-10T17:41:16;2.90;;;1.63;;
7487;SDS011;3785;52.260;4.728;2023-06-10T17:44:36;2.60;;;1.60;;
7487;SDS011;3785;52.260;4.728;2023-06-10T17:47:57;3.40;;;2.25;;
7487;SDS011;3785;52.260;4.728;2023-06-10T17:51:17;2.75;;;2.05;;
7487;SDS011;3785;52.260;4.728;2023-06-10T17:54:38;3.47;;;1.88;;
7487;SDS011;3785;52.260;4.728;2023-06-10T17:57:59;2.80;;;1.83;;
7487;SDS011;3785;52.260;4.728;2023-06-10T18:01:19;3.30;;;2.17;;
7487;SDS011;3785;52.260;4.728;2023-06-10T18:04:40;2.78;;;1.83;;
7487;SDS011;3785;52.260;4.728;2023-06-10T18:08:00;2.50;;;1.60;;
7487;SDS011;3785;52.260;4.728;2023-06-10T18:11:21;2.42;;;1.52;;
7487;SDS011;3785;52.260;4.728;2023-06-10T18:14:42;3.72;;;1.92;;
7487;SDS011;3785;52.260;4.728;2023-06-10T18:18:02;4.10;;;2.05;;
7487;SDS011;3785;52.260;4.728;2023-06-10T18:21:23;3.35;;;1.92;;
7487;SDS011;3785;52.260;4.728;2023-06-10T18:24:43;2.83;;;1.75;;
7487;SDS011;3785;52.260;4.728;2023-06-10T18:28:04;5.22;;;2.00;;
7487;SDS011;3785;52.260;4.728;2023-06-10T18:31:25;4.70;;;2.20;;
7487;SDS011;3785;52.260;4.728;2023-06-10T18:34:45;4.22;;;2.03;;
7487;SDS011;3785;52.260;4.728;2023-06-10T18:38:06;3.10;;;1.63;;
7487;SDS011;3785;52.260;4.728;2023-06-10T18:41:27;3.13;;;2.05;;
7487;SDS011;3785;52.260;4.728;2023-06-10T18:44:48;2.80;;;1.92;;
7487;SDS011;3785;52.260;4.728;2023-06-10T18:48:09;3.45;;;1.90;;
7487;SDS011;3785;52.260;4.728;2023-06-10T18:51:29;3.95;;;1.77;;
7487;SDS011;3785;52.260;4.728;2023-06-10T18:54:50;2.55;;;1.70;;
7487;SDS011;3785;52.260;4.728;2023-06-10T18:58:10;2.30;;;1.70;;
7487;SDS011;3785;52.260;4.728;2023-06-10T19:01:31;3.22;;;1.75;;
7487;SDS011;3785;52.260;4.728;2023-06-10T19:04:52;2.30;;;1.52;;
7487;SDS011;3785;52.260;4.728;2023-06-10T19:08:12;3.70;;;2.00;;
7487;SDS011;3785;52.260;4.728;2023-06-10T19:11:33;3.08;;;1.60;;
7487;SDS011;3785;52.260;4.728;2023-06-10T19:14:53;3.70;;;1.90;;
7487;SDS011;3785;52.260;4.728;2023-06-10T19:18:14;3.00;;;1.60;;
7487;SDS011;3785;52.260;4.728;2023-06-10T19:21:35;4.00;;;1.77;;
7487;SDS011;3785;52.260;4.728;2023-06-10T19:25:02;4.82;;;1.73;;
7487;SDS011;3785;52.260;4.728;2023-06-10T19:28:24;3.38;;;1.75;;
7487;SDS011;3785;52.260;4.728;2023-06-10T19:31:45;2.63;;;1.58;;
7487;SDS011;3785;52.260;4.728;2023-06-10T19:35:05;3.60;;;2.28;;
7487;SDS011;3785;52.260;4.728;2023-06-10T19:38:27;3.30;;;1.67;;
7487;SDS011;3785;52.260;4.728;2023-06-10T19:41:47;2.78;;;1.83;;
7487;SDS011;3785;52.260;4.728;2023-06-10T19:45:08;4.25;;;1.90;;
7487;SDS011;3785;52.260;4.728;2023-06-10T19:48:29;2.72;;;1.50;;
7487;SDS011;3785;52.260;4.728;2023-06-10T19:51:50;2.80;;;1.85;;
7487;SDS011;3785;52.260;4.728;2023-06-10T19:55:11;2.65;;;1.67;;
7487;SDS011;3785;52.260;4.728;2023-06-10T19:58:34;2.08;;;1.52;;
7487;SDS011;3785;52.260;4.728;2023-06-10T20:01:54;2.67;;;1.90;;
7487;SDS011;3785;52.260;4.728;2023-06-10T20:05:15;3.55;;;1.77;;
7487;SDS011;3785;52.260;4.728;2023-06-10T20:08:36;3.08;;;2.08;;
7487;SDS011;3785;52.260;4.728;2023-06-10T20:11:56;3.58;;;1.80;;
7487;SDS011;3785;52.260;4.728;2023-06-10T20:15:17;3.15;;;1.88;;
7487;SDS011;3785;52.260;4.728;2023-06-10T20:18:37;2.83;;;1.77;;
7487;SDS011;3785;52.260;4.728;2023-06-10T20:21:58;3.60;;;1.70;;
7487;SDS011;3785;52.260;4.728;2023-06-10T20:25:19;3.10;;;1.50;;
7487;SDS011;3785;52.260;4.728;2023-06-10T20:28:40;2.20;;;1.55;;
7487;SDS011;3785;52.260;4.728;2023-06-10T20:32:00;2.75;;;1.70;;
7487;SDS011;3785;52.260;4.728;2023-06-10T20:35:21;3.80;;;2.00;;
7487;SDS011;3785;52.260;4.728;2023-06-10T20:38:41;4.05;;;1.67;;
7487;SDS011;3785;52.260;4.728;2023-06-10T20:42:02;3.28;;;2.10;;
7487;SDS011;3785;52.260;4.728;2023-06-10T20:45:23;3.10;;;1.77;;
7487;SDS011;3785;52.260;4.728;2023-06-10T20:48:43;2.75;;;1.90;;
7487;SDS011;3785;52.260;4.728;2023-06-10T20:52:04;4.30;;;2.10;;
7487;SDS011;3785;52.260;4.728;2023-06-10T20:55:25;3.10;;;1.90;;
7487;SDS011;3785;52.260;4.728;2023-06-10T20:58:46;3.85;;;2.05;;
7487;SDS011;3785;52.260;4.728;2023-06-10T21:02:06;2.83;;;1.90;;
7487;SDS011;3785;52.260;4.728;2023-06-10T21:05:27;3.35;;;1.80;;
7487;SDS011;3785;52.260;4.728;2023-06-10T21:08:47;2.70;;;2.08;;
7487;SDS011;3785;52.260;4.728;2023-06-10T21:12:09;3.55;;;1.83;;
7487;SDS011;3785;52.260;4.728;2023-06-10T21:15:29;3.60;;;2.28;;